createdAt,value
2022-10-10T00:01:28.820Z,11.40
2022-10-10T00:03:56.026Z,11.40
2022-10-10T00:06:23.453Z,11.30
2022-10-10T00:08:50.824Z,11.30
2022-10-10T00:11:19.480Z,11.30
2022-10-10T00:13:46.788Z,11.40
2022-10-10T00:16:14.176Z,11.30
2022-10-10T00:18:41.687Z,11.30
2022-10-10T00:21:09.484Z,11.30
2022-10-10T00:23:36.866Z,11.40
2022-10-10T00:26:08.792Z,11.30
2022-10-10T00:28:38.425Z,11.30
2022-10-10T00:31:07.387Z,11.30
2022-10-10T00:33:34.263Z,11.30
2022-10-10T00:36:00.871Z,11.30
2022-10-10T00:38:27.519Z,11.30
2022-10-10T00:40:56.096Z,11.30
2022-10-10T00:43:24.864Z,11.30
2022-10-10T00:45:52.451Z,11.30
2022-10-10T00:48:44.870Z,11.30
2022-10-10T00:51:14.471Z,11.30
2022-10-10T00:53:48.176Z,11.20
2022-10-10T00:56:17.828Z,11.30
2022-10-10T00:58:48.730Z,11.20
2022-10-10T01:01:15.380Z,11.20
2022-10-10T01:03:42.367Z,11.20
2022-10-10T01:06:09.399Z,11.20
2022-10-10T01:08:36.909Z,11.20
2022-10-10T01:11:44.921Z,11.20
2022-10-10T01:14:34.567Z,11.20
2022-10-10T01:17:20.535Z,11.20
2022-10-10T01:19:59.430Z,11.10
2022-10-10T01:22:54.613Z,11.10
2022-10-10T01:25:33.177Z,11.10
2022-10-10T01:28:24.683Z,11.10
2022-10-10T01:30:51.582Z,11.10
2022-10-10T01:33:29.561Z,11.10
2022-10-10T01:36:05.021Z,11.10
2022-10-10T01:38:41.866Z,11.10
2022-10-10T01:41:17.445Z,11.00
2022-10-10T01:43:44.091Z,11.10
2022-10-10T01:46:17.405Z,11.10
2022-10-10T01:48:47.127Z,11.00
2022-10-10T01:51:25.842Z,11.00
2022-10-10T01:54:33.523Z,11.00
2022-10-10T01:57:21.541Z,11.00
2022-10-10T02:00:05.785Z,11.00
2022-10-10T02:02:56.260Z,10.90
2022-10-10T02:05:45.617Z,10.90
2022-10-10T02:08:17.648Z,10.90
2022-10-10T02:10:49.335Z,10.90
2022-10-10T02:13:18.186Z,10.80
2022-10-10T02:15:57.292Z,10.80
2022-10-10T02:18:29.089Z,10.90
2022-10-10T02:20:56.200Z,10.80
2022-10-10T02:23:23.139Z,10.80
2022-10-10T02:25:55.417Z,10.80
2022-10-10T02:28:27.649Z,10.80
2022-10-10T02:30:59.496Z,10.80
2022-10-10T02:33:39.001Z,10.80
2022-10-10T02:36:06.696Z,10.80
2022-10-10T02:38:33.427Z,10.80
2022-10-10T02:41:03.957Z,10.80
2022-10-10T02:43:33.051Z,10.70
2022-10-10T02:46:04.660Z,10.70
2022-10-10T02:48:31.208Z,10.70
2022-10-10T02:50:58.123Z,10.70
2022-10-10T02:53:24.830Z,10.70
2022-10-10T02:55:51.430Z,10.70
2022-10-10T02:58:18.383Z,10.70
2022-10-10T03:00:45.232Z,10.70
2022-10-10T03:03:11.952Z,10.60
2022-10-10T03:05:38.819Z,10.60
2022-10-10T03:08:10.647Z,10.60
2022-10-10T03:10:39.184Z,10.60
2022-10-10T03:13:05.866Z,10.60
2022-10-10T03:15:32.542Z,10.60
2022-10-10T03:17:59.216Z,10.60
2022-10-10T03:20:25.823Z,10.60
2022-10-10T03:22:52.786Z,10.60
2022-10-10T03:25:19.596Z,10.60
2022-10-10T03:27:46.308Z,10.60
2022-10-10T03:30:13.627Z,10.50
2022-10-10T03:32:40.254Z,10.50
2022-10-10T03:35:07.281Z,10.50
2022-10-10T03:37:33.953Z,10.50
2022-10-10T03:40:00.612Z,10.50
2022-10-10T03:42:27.548Z,10.50
2022-10-10T03:44:54.461Z,10.50
2022-10-10T03:47:23.850Z,10.40
2022-10-10T03:49:50.532Z,10.40
2022-10-10T03:52:17.172Z,10.40
2022-10-10T03:54:43.806Z,10.40
2022-10-10T03:57:10.721Z,10.40
2022-10-10T03:59:37.327Z,10.40
2022-10-10T04:02:03.988Z,10.30
2022-10-10T04:04:31.718Z,10.30
2022-10-10T04:06:58.526Z,10.30
2022-10-10T04:09:25.571Z,10.40
2022-10-10T04:11:52.503Z,10.40
2022-10-10T04:14:19.656Z,10.30
2022-10-10T04:16:46.280Z,10.30
2022-10-10T04:19:13.030Z,10.30
2022-10-10T04:21:39.657Z,10.30
2022-10-10T04:24:06.758Z,10.30
2022-10-10T04:26:33.534Z,10.30
2022-10-10T04:29:00.622Z,10.30
2022-10-10T04:31:27.683Z,10.30
2022-10-10T04:33:54.450Z,10.30
2022-10-10T04:36:21.341Z,10.30
2022-10-10T04:38:48.281Z,10.30
2022-10-10T04:41:15.081Z,10.30
2022-10-10T04:43:41.999Z,10.20
2022-10-10T04:46:09.264Z,10.20
2022-10-10T04:48:36.883Z,10.30
2022-10-10T04:51:04.083Z,10.20
2022-10-10T04:53:30.796Z,10.20
2022-10-10T04:55:57.371Z,10.20
2022-10-10T04:58:23.981Z,10.20
2022-10-10T05:00:52.941Z,10.20
2022-10-10T05:03:19.892Z,10.20
2022-10-10T05:05:46.541Z,10.20
2022-10-10T05:08:13.280Z,10.20
2022-10-10T05:10:40.726Z,10.20
2022-10-10T05:13:11.040Z,10.20
2022-10-10T05:15:38.428Z,10.20
2022-10-10T05:18:05.366Z,10.20
2022-10-10T05:20:33.840Z,10.20
2022-10-10T05:23:01.958Z,10.20
2022-10-10T05:25:29.248Z,10.20
2022-10-10T05:27:55.821Z,10.20
2022-10-10T05:30:22.689Z,10.10
2022-10-10T05:32:49.605Z,10.20
2022-10-10T05:35:16.616Z,10.10
2022-10-10T05:37:43.267Z,10.10
2022-10-10T05:40:10.172Z,10.10
2022-10-10T05:42:36.732Z,10.10
2022-10-10T05:45:03.800Z,10.10
2022-10-10T05:47:30.939Z,10.10
2022-10-10T05:49:57.732Z,10.10
2022-10-10T05:52:24.304Z,10.10
2022-10-10T05:54:50.987Z,10.10
2022-10-10T05:57:17.618Z,10.10
2022-10-10T05:59:44.229Z,10.10
2022-10-10T06:02:13.944Z,10.10
2022-10-10T06:04:40.648Z,10.10
2022-10-10T06:07:07.302Z,10.00
2022-10-10T06:09:33.992Z,10.00
2022-10-10T06:12:00.594Z,10.00
2022-10-10T06:14:27.634Z,10.00
2022-10-10T06:16:54.630Z,10.00
2022-10-10T06:19:21.444Z,9.90
2022-10-10T06:21:49.539Z,9.90
2022-10-10T06:24:16.307Z,9.90
2022-10-10T06:26:43.062Z,9.90
2022-10-10T06:29:09.824Z,9.90
2022-10-10T06:31:39.477Z,9.90
2022-10-10T06:34:06.358Z,9.90
2022-10-10T06:36:33.177Z,10.00
2022-10-10T06:38:59.856Z,9.90
2022-10-10T06:41:26.588Z,9.90
2022-10-10T06:43:53.410Z,10.00
2022-10-10T06:46:19.996Z,10.00
2022-10-10T06:48:47.229Z,9.90
2022-10-10T06:51:15.683Z,9.90
2022-10-10T06:53:43.181Z,10.00
2022-10-10T06:56:24.945Z,10.00
2022-10-10T06:58:54.093Z,10.00
2022-10-10T07:01:22.105Z,10.00
2022-10-10T07:03:48.907Z,10.10
2022-10-10T07:06:16.915Z,10.10
2022-10-10T07:08:44.017Z,10.10
2022-10-10T07:11:11.303Z,10.10
2022-10-10T07:13:38.449Z,10.10
2022-10-10T07:16:05.903Z,10.20
2022-10-10T07:18:33.963Z,10.20
2022-10-10T07:21:02.065Z,10.20
2022-10-10T07:23:28.923Z,10.20
2022-10-10T07:26:11.873Z,10.30
2022-10-10T07:28:39.383Z,10.30
2022-10-10T07:31:08.874Z,10.40
2022-10-10T07:33:38.362Z,10.40
2022-10-10T07:36:05.809Z,10.40
2022-10-10T07:38:33.618Z,10.40
2022-10-10T07:41:00.781Z,10.50
2022-10-10T07:43:27.606Z,10.50
2022-10-10T07:45:54.667Z,10.50
2022-10-10T07:48:21.310Z,10.60
2022-10-10T07:50:47.920Z,10.60
2022-10-10T07:53:14.678Z,10.60
2022-10-10T07:55:42.905Z,10.60
2022-10-10T07:58:11.199Z,10.70
2022-10-10T08:00:40.997Z,10.70
2022-10-10T08:03:12.347Z,10.70
2022-10-10T08:05:44.200Z,10.80
2022-10-10T08:08:11.709Z,10.80
2022-10-10T08:10:42.498Z,10.90
2022-10-10T08:13:09.255Z,11.00
2022-10-10T08:15:38.716Z,11.00
2022-10-10T08:18:05.443Z,11.10
2022-10-10T08:20:32.043Z,11.20
2022-10-10T08:22:58.965Z,11.20
2022-10-10T08:25:26.257Z,11.30
2022-10-10T08:27:52.871Z,11.40
2022-10-10T08:30:20.057Z,11.50
2022-10-10T08:32:46.727Z,11.60
2022-10-10T08:35:13.319Z,11.70
2022-10-10T08:37:40.169Z,11.70
2022-10-10T08:40:07.590Z,11.80
2022-10-10T08:42:45.596Z,11.90
2022-10-10T08:45:22.764Z,12.00
2022-10-10T08:47:52.471Z,12.10
2022-10-10T08:50:25.102Z,12.20
2022-10-10T08:53:06.964Z,12.20
2022-10-10T08:55:37.673Z,12.30
2022-10-10T08:58:21.045Z,12.40
2022-10-10T09:01:14.355Z,12.50
2022-10-10T09:03:47.207Z,12.60
2022-10-10T09:06:19.492Z,12.70
2022-10-10T09:09:10.764Z,12.70
2022-10-10T09:12:05.372Z,12.80
2022-10-10T09:14:38.115Z,12.90
2022-10-10T09:17:29.969Z,13.00
2022-10-10T09:20:21.397Z,13.10
2022-10-10T09:22:58.740Z,13.20
2022-10-10T09:25:48.838Z,13.20
2022-10-10T09:28:35.575Z,13.30
2022-10-10T09:31:05.588Z,13.40
2022-10-10T09:33:41.370Z,13.50
2022-10-10T09:36:14.880Z,13.60
2022-10-10T09:38:55.348Z,13.70
2022-10-10T09:41:48.431Z,13.70
2022-10-10T09:44:18.163Z,13.80
2022-10-10T09:46:44.769Z,13.90
2022-10-10T09:49:14.972Z,14.10
2022-10-10T09:51:41.767Z,14.20
2022-10-10T09:54:08.534Z,14.40
2022-10-10T09:56:42.279Z,14.50
2022-10-10T09:59:38.134Z,14.60
2022-10-10T10:02:18.379Z,14.70
2022-10-10T10:04:46.037Z,14.90
2022-10-10T10:07:29.347Z,15.00
2022-10-10T10:10:17.336Z,15.10
2022-10-10T10:12:45.381Z,15.20
2022-10-10T10:15:20.345Z,15.30
2022-10-10T10:17:48.508Z,15.40
2022-10-10T10:20:30.049Z,15.50
2022-10-10T10:22:56.819Z,15.60
2022-10-10T10:25:32.598Z,15.60
2022-10-10T10:28:11.646Z,15.70
2022-10-10T10:30:39.777Z,15.80
2022-10-10T10:33:27.912Z,15.90
2022-10-10T10:36:15.108Z,16.10
2022-10-10T10:39:00.277Z,16.20
2022-10-10T10:41:32.591Z,16.30
2022-10-10T10:44:14.334Z,16.40
2022-10-10T10:47:06.072Z,16.60
2022-10-10T10:50:10.467Z,16.70
2022-10-10T10:53:24.899Z,16.80
2022-10-10T10:55:57.614Z,17.00
2022-10-10T11:01:56.290Z,17.20
2022-10-10T11:05:22.969Z,17.40
2022-10-10T11:07:51.772Z,17.60
2022-10-10T11:10:48.627Z,17.70
2022-10-10T11:13:36.045Z,17.70
2022-10-10T11:16:24.434Z,17.70
2022-10-10T11:19:15.136Z,17.80
2022-10-10T11:21:52.492Z,17.90
2022-10-10T11:24:24.758Z,18.00
2022-10-10T11:26:56.988Z,18.00
2022-10-10T11:29:29.681Z,18.10
2022-10-10T11:32:03.014Z,18.10
2022-10-10T11:34:38.321Z,18.20
2022-10-10T11:37:11.688Z,18.20
2022-10-10T11:40:01.032Z,18.20
2022-10-10T11:42:37.460Z,18.30
2022-10-10T11:45:14.337Z,18.30
2022-10-10T11:47:53.883Z,18.30
2022-10-10T11:50:30.789Z,18.40
2022-10-10T11:53:19.926Z,18.40
2022-10-10T11:56:04.936Z,18.40
2022-10-10T11:59:00.348Z,18.40
2022-10-10T12:01:42.047Z,18.40
2022-10-10T12:04:08.881Z,18.40
2022-10-10T12:06:50.742Z,18.40
2022-10-10T12:09:23.540Z,18.40
2022-10-10T12:12:06.943Z,18.40
2022-10-10T12:14:37.201Z,18.40
2022-10-10T12:17:05.240Z,18.40
2022-10-10T12:19:32.118Z,18.50
2022-10-10T12:22:08.401Z,18.50
2022-10-10T12:24:56.683Z,18.50
2022-10-10T12:27:41.380Z,18.50
2022-10-10T12:30:07.926Z,18.50
2022-10-10T12:32:38.602Z,18.50
2022-10-10T12:35:36.198Z,18.50
2022-10-10T12:38:06.055Z,18.50
2022-10-10T12:40:33.487Z,18.40
2022-10-10T12:43:03.981Z,18.50
2022-10-10T12:45:30.654Z,18.40
2022-10-10T12:48:06.340Z,18.40
2022-10-10T12:50:39.980Z,18.40
2022-10-10T12:53:17.467Z,18.40
2022-10-10T12:55:52.150Z,18.30
2022-10-10T12:58:28.491Z,18.30
2022-10-10T13:00:57.682Z,18.30
2022-10-10T13:03:35.917Z,18.20
2022-10-10T13:06:28.049Z,18.20
2022-10-10T13:08:55.744Z,18.20
2022-10-10T13:11:22.900Z,18.20
2022-10-10T13:13:52.462Z,18.10
2022-10-10T13:16:22.693Z,18.10
2022-10-10T13:18:55.169Z,18.10
2022-10-10T13:21:26.322Z,18.10
2022-10-10T13:24:03.337Z,18.10
2022-10-10T13:26:35.759Z,18.00
2022-10-10T13:29:21.040Z,18.00
2022-10-10T13:31:48.368Z,18.00
2022-10-10T13:34:23.476Z,17.90
2022-10-10T13:36:56.075Z,17.90
2022-10-10T13:39:23.781Z,17.90
2022-10-10T13:41:51.601Z,17.90
2022-10-10T13:44:46.588Z,17.80
2022-10-10T13:47:44.495Z,17.80
2022-10-10T13:50:25.545Z,17.70
2022-10-10T13:53:24.458Z,17.70
2022-10-10T13:56:14.344Z,17.70
2022-10-10T13:58:50.654Z,17.70
2022-10-10T14:01:31.725Z,17.70
2022-10-10T14:04:15.244Z,17.60
2022-10-10T14:06:52.488Z,17.60
2022-10-10T14:09:26.817Z,17.50
2022-10-10T14:11:55.475Z,17.50
2022-10-10T14:14:26.126Z,17.40
2022-10-10T14:17:04.216Z,17.40
2022-10-10T14:19:32.283Z,17.40
2022-10-10T14:21:59.614Z,17.30
2022-10-10T14:24:26.422Z,17.30
2022-10-10T14:26:53.136Z,17.20
2022-10-10T14:29:20.613Z,17.20
2022-10-10T14:31:47.622Z,17.20
2022-10-10T14:34:14.951Z,17.20
2022-10-10T14:36:50.167Z,17.20
2022-10-10T14:39:18.467Z,17.10
2022-10-10T14:41:45.443Z,17.10
2022-10-10T14:44:12.337Z,17.10
2022-10-10T14:46:39.661Z,17.10
2022-10-10T14:49:09.791Z,17.10
2022-10-10T14:51:39.924Z,17.10
2022-10-10T14:54:10.674Z,17.10
2022-10-10T14:57:08.534Z,17.10
2022-10-10T14:59:48.127Z,17.10
2022-10-10T15:02:14.651Z,17.10
2022-10-10T15:04:41.697Z,17.10
2022-10-10T15:07:14.774Z,17.10
2022-10-10T15:09:52.507Z,17.10
2022-10-10T15:12:30.109Z,17.10
2022-10-10T15:14:56.768Z,17.10
2022-10-10T15:17:25.403Z,17.10
2022-10-10T15:19:52.165Z,17.10
2022-10-10T15:22:19.324Z,17.00
2022-10-10T15:24:46.132Z,17.10
2022-10-10T15:27:13.263Z,17.00
2022-10-10T15:29:40.012Z,17.00
2022-10-10T15:32:06.704Z,17.00
2022-10-10T15:34:33.586Z,16.90
2022-10-10T15:37:00.198Z,16.90
2022-10-10T15:39:28.805Z,16.80
2022-10-10T15:41:56.514Z,16.80
2022-10-10T15:44:23.119Z,16.80
2022-10-10T15:46:50.000Z,16.70
2022-10-10T15:49:16.690Z,16.70
2022-10-10T15:51:46.053Z,16.60
2022-10-10T15:54:13.245Z,16.60
2022-10-10T15:56:40.318Z,16.60
2022-10-10T15:59:08.307Z,16.50
2022-10-10T16:01:35.397Z,16.40
2022-10-10T16:04:03.821Z,16.30
2022-10-10T16:06:30.457Z,16.30
2022-10-10T16:09:10.345Z,16.20
2022-10-10T16:11:43.859Z,16.20
2022-10-10T16:14:11.058Z,16.10
2022-10-10T16:16:38.508Z,16.10
2022-10-10T16:19:05.302Z,16.00
2022-10-10T16:21:33.428Z,16.00
2022-10-10T16:24:00.758Z,16.00
2022-10-10T16:26:31.995Z,15.90
2022-10-10T16:28:59.973Z,15.80
2022-10-10T16:31:28.595Z,15.70
2022-10-10T16:33:57.389Z,15.70
2022-10-10T16:36:30.350Z,15.60
2022-10-10T16:38:58.023Z,15.60
2022-10-10T16:41:49.717Z,15.50
2022-10-10T16:44:19.475Z,15.50
2022-10-10T16:46:46.130Z,15.40
2022-10-10T16:49:16.576Z,15.30
2022-10-10T16:51:43.482Z,15.30
2022-10-10T16:54:10.544Z,15.20
2022-10-10T16:56:37.195Z,15.20
2022-10-10T16:59:04.432Z,15.10
2022-10-10T17:01:31.203Z,15.10
2022-10-10T17:03:59.523Z,15.00
2022-10-10T17:06:30.089Z,15.00
2022-10-10T17:09:02.320Z,14.90
2022-10-10T17:11:29.386Z,14.90
2022-10-10T17:13:56.062Z,14.80
2022-10-10T17:19:11.544Z,14.70
2022-10-10T17:21:38.164Z,14.70
2022-10-10T17:24:04.905Z,14.60
2022-10-10T17:26:31.677Z,14.60
2022-10-10T17:29:00.036Z,14.50
2022-10-10T17:31:29.354Z,14.50
2022-10-10T17:33:57.166Z,14.40
2022-10-10T17:36:25.963Z,14.40
2022-10-10T17:38:53.643Z,14.30
2022-10-10T17:41:20.972Z,14.30
2022-10-10T17:43:48.328Z,14.20
2022-10-10T17:46:34.175Z,14.20
2022-10-10T17:49:01.333Z,14.10
2022-10-10T17:51:28.053Z,14.10
2022-10-10T17:53:54.655Z,14.10
2022-10-10T17:56:22.652Z,14.00
2022-10-10T17:58:50.570Z,13.90
2022-10-10T18:01:19.785Z,13.90
2022-10-10T18:03:46.769Z,13.80
2022-10-10T18:06:16.472Z,13.80
2022-10-10T18:08:43.117Z,13.70
2022-10-10T18:11:17.834Z,13.70
2022-10-10T18:13:44.602Z,13.70
2022-10-10T18:16:16.719Z,13.60
2022-10-10T18:18:50.477Z,13.60
2022-10-10T18:21:19.538Z,13.50
2022-10-10T18:23:46.172Z,13.40
2022-10-10T18:26:15.492Z,13.40
2022-10-10T18:28:43.384Z,13.30
2022-10-10T18:31:14.319Z,13.30
2022-10-10T18:33:42.149Z,13.20
2022-10-10T18:36:09.847Z,13.20
2022-10-10T18:38:37.744Z,13.20
2022-10-10T18:41:08.762Z,13.10
2022-10-10T18:43:36.488Z,13.10
2022-10-10T18:46:05.840Z,13.10
2022-10-10T18:48:32.700Z,13.00
2022-10-10T18:51:04.394Z,12.90
2022-10-10T18:53:31.481Z,12.90
2022-10-10T18:56:00.478Z,12.80
2022-10-10T18:58:27.812Z,12.80
2022-10-10T19:01:02.436Z,12.80
2022-10-10T19:03:30.004Z,12.70
2022-10-10T19:05:57.376Z,12.70
2022-10-10T19:08:24.358Z,12.70
2022-10-10T19:10:51.955Z,12.60
2022-10-10T19:13:19.951Z,12.60
2022-10-10T19:15:47.250Z,12.60
2022-10-10T19:18:14.226Z,12.50
2022-10-10T19:20:40.885Z,12.50
2022-10-10T19:23:07.622Z,12.40
2022-10-10T19:25:41.963Z,12.40
2022-10-10T19:28:08.942Z,12.40
2022-10-10T19:30:44.157Z,12.30
2022-10-10T19:33:11.731Z,12.20
2022-10-10T19:35:40.569Z,12.20
2022-10-10T19:38:09.475Z,12.20
2022-10-10T19:40:43.814Z,12.20
2022-10-10T19:43:10.444Z,12.10
2022-10-10T19:45:47.353Z,12.10
2022-10-10T19:48:21.756Z,12.10
2022-10-10T19:50:50.705Z,12.00
2022-10-10T19:53:18.428Z,12.00
2022-10-10T19:55:57.620Z,12.00
2022-10-10T19:58:24.475Z,11.90
2022-10-10T20:00:51.315Z,11.90
2022-10-10T20:03:18.741Z,11.80
2022-10-10T20:05:45.343Z,11.80
2022-10-10T20:08:12.320Z,11.80
2022-10-10T20:10:43.437Z,11.70
2022-10-10T20:13:14.739Z,11.70
2022-10-10T20:15:43.574Z,11.70
2022-10-10T20:18:11.319Z,11.70
2022-10-10T20:20:42.895Z,11.70
2022-10-10T20:23:10.935Z,11.60
2022-10-10T20:25:43.001Z,11.60
2022-10-10T20:28:10.048Z,11.50
2022-10-10T20:30:41.864Z,11.50
2022-10-10T20:33:08.690Z,11.50
2022-10-10T20:35:36.583Z,11.40
2022-10-10T20:38:04.550Z,11.40
2022-10-10T20:40:31.844Z,11.40
2022-10-10T20:42:59.517Z,11.40
2022-10-10T20:45:26.114Z,11.30
2022-10-10T20:47:52.696Z,11.30
2022-10-10T20:50:19.458Z,11.30
2022-10-10T20:52:46.237Z,11.20
2022-10-10T20:55:13.080Z,11.20
2022-10-10T20:57:39.935Z,11.20
2022-10-10T21:00:07.605Z,11.20
2022-10-10T21:02:34.625Z,11.20
2022-10-10T21:05:02.246Z,11.10
2022-10-10T21:07:29.330Z,11.10
2022-10-10T21:09:56.063Z,11.10
2022-10-10T21:12:22.925Z,11.10
2022-10-10T21:14:49.696Z,11.00
2022-10-10T21:17:16.570Z,11.00
2022-10-10T21:19:43.566Z,11.00
2022-10-10T21:22:10.584Z,10.90
2022-10-10T21:24:37.397Z,10.90
2022-10-10T21:27:04.637Z,10.90
2022-10-10T21:29:31.757Z,10.90
2022-10-10T21:32:18.730Z,10.90
2022-10-10T21:34:54.281Z,10.80
2022-10-10T21:37:22.908Z,10.90
2022-10-10T21:39:49.600Z,10.80
2022-10-10T21:42:16.203Z,10.70
2022-10-10T21:44:43.010Z,10.80
2022-10-10T21:47:10.973Z,10.70
2022-10-10T21:49:37.936Z,10.70
2022-10-10T21:52:04.580Z,10.70
2022-10-10T21:54:31.637Z,10.70
2022-10-10T21:56:58.317Z,10.70
2022-10-10T21:59:26.484Z,10.60
2022-10-10T22:01:53.173Z,10.60
2022-10-10T22:04:19.809Z,10.60
2022-10-10T22:06:46.520Z,10.60
2022-10-10T22:09:13.236Z,10.60
2022-10-10T22:11:40.080Z,10.60
2022-10-10T22:14:06.750Z,10.60
2022-10-10T22:16:34.020Z,10.50
2022-10-10T22:19:00.979Z,10.50
2022-10-10T22:21:32.139Z,10.50
2022-10-10T22:24:01.933Z,10.50
2022-10-10T22:26:29.322Z,10.50
2022-10-10T22:28:56.033Z,10.40
2022-10-10T22:31:23.185Z,10.40
2022-10-10T22:33:49.769Z,10.40
2022-10-10T22:36:16.453Z,10.40
2022-10-10T22:38:44.876Z,10.40
2022-10-10T22:41:12.687Z,10.30
2022-10-10T22:43:39.334Z,10.30
2022-10-10T22:46:06.473Z,10.30
2022-10-10T22:48:33.778Z,10.20
2022-10-10T22:51:03.223Z,10.20
2022-10-10T22:53:32.965Z,10.20
2022-10-10T22:55:59.932Z,10.20
2022-10-10T22:58:27.276Z,10.20
2022-10-10T23:00:54.554Z,10.20
2022-10-10T23:03:21.747Z,10.10
2022-10-10T23:05:48.364Z,10.20
2022-10-10T23:08:15.299Z,10.10
2022-10-10T23:10:42.263Z,10.10
2022-10-10T23:13:09.119Z,10.10
2022-10-10T23:15:35.858Z,10.10
2022-10-10T23:18:02.691Z,10.10
2022-10-10T23:20:29.742Z,10.00
2022-10-10T23:22:56.895Z,10.00
2022-10-10T23:25:26.637Z,10.00
2022-10-10T23:27:53.736Z,9.90
2022-10-10T23:30:21.267Z,9.90
2022-10-10T23:32:48.156Z,9.90
2022-10-10T23:35:15.205Z,9.90
2022-10-10T23:37:41.999Z,9.90
2022-10-10T23:40:09.181Z,9.90
2022-10-10T23:42:36.033Z,9.80
2022-10-10T23:45:02.958Z,9.80
2022-10-10T23:47:29.790Z,9.80
2022-10-10T23:49:56.616Z,9.80
2022-10-10T23:52:23.404Z,9.70
2022-10-10T23:54:50.126Z,9.80
2022-10-10T23:57:16.732Z,9.70
2022-10-10T23:59:43.902Z,9.70
